Time;durP1;ratioP1;P1;durP2;ratioP2;P2;SDS_P1;SDS_P2;PMS_P1;PMS_P2;Temp;Humidity;BMP_temperature;BMP_pressure;BME280_temperature;BME280_humidity;BME280_pressure;Samples;Min_cycle;Max_cycle;Signal;HPM_P1;HPM_P2
2020/12/07 00:01:55;;;;;;;35.15;20.73;;;6.90;99.90;;;;;;4906146;29;20061;-83
2020/12/07 00:04:22;;;;;;;39.90;20.45;;;6.90;99.90;;;;;;4918006;29;20046;-84
2020/12/07 00:06:52;;;;;;;29.13;17.70;;;6.70;99.90;;;;;;4928287;29;20044;-84
2020/12/07 00:09:21;;;;;;;28.52;18.52;;;6.70;99.90;;;;;;4907276;29;20029;-84
2020/12/07 00:11:48;;;;;;;29.65;18.13;;;6.70;99.90;;;;;;4907384;29;20028;-83
2020/12/07 00:14:15;;;;;;;30.17;18.83;;;6.80;99.90;;;;;;4901067;29;20047;-84
2020/12/07 00:16:47;;;;;;;30.63;18.38;;;6.90;99.90;;;;;;4888464;29;20107;-85
2020/12/07 00:19:13;;;;;;;26.52;18.50;;;6.90;99.90;;;;;;4902406;29;20032;-84
2020/12/07 00:21:43;;;;;;;31.23;20.13;;;7.00;99.90;;;;;;4904033;29;20032;-83
2020/12/07 00:24:09;;;;;;;27.33;17.02;;;7.00;99.90;;;;;;4920107;29;20135;-84
2020/12/07 00:26:35;;;;;;;30.90;19.05;;;7.00;99.90;;;;;;4922176;29;20403;-83
2020/12/07 00:29:01;;;;;;;30.35;19.38;;;7.00;99.90;;;;;;4908778;29;20047;-84
2020/12/07 00:31:26;;;;;;;32.17;19.73;;;6.90;99.90;;;;;;4923224;29;20043;-83
2020/12/07 00:34:00;;;;;;;28.55;19.15;;;6.70;99.90;;;;;;4905974;29;20473;-83
2020/12/07 00:36:27;;;;;;;30.80;19.52;;;6.70;99.90;;;;;;4922598;29;20054;-90
2020/12/07 00:38:54;;;;;;;26.52;17.95;;;6.90;99.90;;;;;;4922287;29;20043;-83
2020/12/07 00:41:23;;;;;;;33.40;19.25;;;6.90;99.90;;;;;;4922148;29;20063;-84
2020/12/07 00:43:50;;;;;;;35.92;18.63;;;7.00;99.90;;;;;;4927537;29;20095;-83
2020/12/07 00:46:17;;;;;;;31.58;18.48;;;7.00;99.90;;;;;;4939003;29;20032;-82
2020/12/07 00:48:43;;;;;;;30.30;18.88;;;7.00;99.90;;;;;;4927380;29;20012;-83
2020/12/07 00:51:08;;;;;;;27.75;18.35;;;7.00;99.90;;;;;;4942699;29;20054;-84
2020/12/07 00:53:34;;;;;;;32.50;17.95;;;6.90;99.90;;;;;;4910947;29;20020;-84
2020/12/07 00:56:00;;;;;;;35.20;19.70;;;6.90;99.90;;;;;;4935107;29;20055;-85
2020/12/07 00:58:27;;;;;;;30.30;18.23;;;6.90;99.90;;;;;;4921619;29;20040;-85
2020/12/07 01:00:52;;;;;;;34.15;19.15;;;6.90;99.90;;;;;;4922154;29;20034;-83
2020/12/07 01:03:19;;;;;;;30.20;16.42;;;7.00;99.90;;;;;;4906076;29;20481;-83
2020/12/07 01:05:44;;;;;;;24.60;16.20;;;7.00;99.90;;;;;;4924438;29;20067;-83
2020/12/07 01:08:10;;;;;;;27.50;16.83;;;7.00;99.90;;;;;;4940235;29;20094;-83
2020/12/07 01:10:36;;;;;;;32.47;18.15;;;7.00;99.90;;;;;;4942465;29;20039;-83
2020/12/07 01:13:02;;;;;;;32.60;15.73;;;7.00;99.90;;;;;;4926902;29;20032;-84
2020/12/07 01:15:28;;;;;;;26.52;14.77;;;7.10;99.90;;;;;;4942946;29;20028;-92
2020/12/07 01:17:53;;;;;;;28.50;16.58;;;7.10;99.90;;;;;;4942294;29;20020;-84
2020/12/07 01:20:19;;;;;;;31.95;17.42;;;7.10;99.90;;;;;;4912771;29;20054;-83
2020/12/07 01:22:45;;;;;;;27.27;16.48;;;7.10;99.90;;;;;;4923315;29;20040;-84
2020/12/07 01:25:16;;;;;;;26.73;16.95;;;7.00;99.90;;;;;;4905707;29;20060;-84
2020/12/07 01:27:48;;;;;;;32.63;18.20;;;7.00;99.90;;;;;;4923334;29;20048;-84
2020/12/07 01:30:14;;;;;;;32.75;18.25;;;7.00;99.90;;;;;;4890695;29;20037;-84
2020/12/07 01:32:40;;;;;;;27.88;17.70;;;7.00;99.90;;;;;;4891744;29;20032;-84
2020/12/07 01:35:05;;;;;;;28.77;16.23;;;7.00;99.90;;;;;;4905147;29;20483;-83
2020/12/07 01:37:31;;;;;;;27.48;15.52;;;7.00;99.90;;;;;;4907083;29;20119;-83
2020/12/07 01:39:56;;;;;;;29.50;16.63;;;7.10;99.90;;;;;;4894337;29;20036;-84
2020/12/07 01:42:22;;;;;;;34.88;18.60;;;7.00;99.90;;;;;;4909006;29;20095;-83
2020/12/07 01:44:48;;;;;;;32.50;16.88;;;6.90;99.90;;;;;;4923872;29;20040;-83
2020/12/07 01:47:24;;;;;;;31.23;16.17;;;6.90;99.90;;;;;;4894724;29;20040;-83
2020/12/07 01:49:50;;;;;;;24.02;14.10;;;6.80;99.90;;;;;;4922781;29;20032;-82
2020/12/07 01:52:20;;;;;;;25.48;13.60;;;6.80;99.90;;;;;;4921179;29;20032;-84
2020/12/07 01:54:47;;;;;;;14.40;8.95;;;6.70;99.90;;;;;;4925092;29;20028;-82
2020/12/07 01:57:13;;;;;;;18.52;9.40;;;6.70;99.90;;;;;;4908786;29;20112;-84
2020/12/07 01:59:39;;;;;;;14.85;8.02;;;6.80;99.90;;;;;;4905098;29;20467;-84
2020/12/07 02:02:05;;;;;;;13.55;8.20;;;6.90;99.90;;;;;;4918848;29;20076;-83
2020/12/07 02:04:31;;;;;;;19.23;9.77;;;7.00;99.90;;;;;;4922305;29;20513;-85
2020/12/07 02:06:56;;;;;;;11.23;7.60;;;6.90;99.90;;;;;;4915896;29;20075;-82
2020/12/07 02:09:29;;;;;;;17.25;8.18;;;6.90;99.90;;;;;;4936599;29;20036;-83
2020/12/07 02:11:55;;;;;;;8.82;6.25;;;7.00;99.90;;;;;;4936437;29;20060;-83
2020/12/07 02:14:21;;;;;;;12.02;6.88;;;7.00;99.90;;;;;;4934988;29;20375;-83
2020/12/07 02:16:47;;;;;;;11.85;6.53;;;7.00;99.90;;;;;;4930572;29;20040;-84
2020/12/07 02:19:12;;;;;;;12.57;6.93;;;7.10;99.90;;;;;;4935438;29;20036;-82
2020/12/07 02:21:38;;;;;;;11.73;5.97;;;7.20;99.90;;;;;;4938205;29;20039;-82
2020/12/07 02:24:04;;;;;;;10.25;5.35;;;7.20;99.90;;;;;;4943091;29;20063;-82
2020/12/07 02:26:30;;;;;;;7.82;4.72;;;7.10;99.90;;;;;;4927309;29;20028;-84
2020/12/07 02:28:55;;;;;;;7.85;4.13;;;7.10;99.90;;;;;;4924651;29;20032;-82
2020/12/07 02:31:21;;;;;;;12.48;5.20;;;7.00;99.90;;;;;;4903304;29;20062;-84
2020/12/07 02:33:46;;;;;;;10.95;4.35;;;6.90;99.90;;;;;;4954724;29;20031;-82
2020/12/07 02:36:12;;;;;;;6.88;3.63;;;6.90;99.90;;;;;;4942940;29;20030;-82
2020/12/07 02:38:38;;;;;;;11.10;4.18;;;7.00;99.90;;;;;;4912810;29;20039;-89
2020/12/07 02:41:03;;;;;;;10.32;5.40;;;7.00;99.90;;;;;;4960676;29;20019;-82
2020/12/07 02:43:31;;;;;;;7.05;4.30;;;7.00;99.90;;;;;;4958499;29;20087;-83
2020/12/07 02:45:56;;;;;;;8.80;4.60;;;7.00;99.90;;;;;;4933768;29;20039;-83
2020/12/07 02:48:22;;;;;;;10.32;4.60;;;7.00;99.90;;;;;;4940483;29;20016;-83
2020/12/07 02:50:47;;;;;;;9.07;5.68;;;7.00;99.90;;;;;;4960326;29;20023;-83
2020/12/07 02:53:13;;;;;;;7.00;4.22;;;7.00;99.90;;;;;;4942994;29;20046;-84
2020/12/07 02:55:39;;;;;;;10.77;5.25;;;7.00;99.90;;;;;;4927260;29;20043;-85
2020/12/07 02:58:04;;;;;;;7.80;4.70;;;7.00;99.90;;;;;;4925924;29;20036;-84
2020/12/07 03:00:30;;;;;;;5.95;3.90;;;7.00;99.90;;;;;;4919343;29;20028;-84
2020/12/07 03:02:56;;;;;;;11.43;5.82;;;7.10;99.90;;;;;;4900081;29;20035;-83
2020/12/07 03:05:21;;;;;;;7.38;4.50;;;7.20;99.90;;;;;;4930479;29;20031;-82
2020/12/07 03:07:47;;;;;;;6.90;4.13;;;7.20;99.90;;;;;;4925934;29;20482;-82
2020/12/07 03:10:12;;;;;;;9.00;4.07;;;7.20;99.90;;;;;;4904227;29;20031;-83
2020/12/07 03:12:38;;;;;;;11.25;4.28;;;7.20;99.90;;;;;;4904577;29;20099;-84
2020/12/07 03:15:04;;;;;;;7.55;4.57;;;7.20;99.90;;;;;;4919809;29;20427;-82
2020/12/07 03:17:30;;;;;;;15.73;5.25;;;7.20;99.90;;;;;;4903842;29;20040;-82
2020/12/07 03:19:56;;;;;;;8.32;4.25;;;7.00;99.90;;;;;;4920090;29;20123;-83
2020/12/07 03:22:22;;;;;;;8.18;3.08;;;6.90;99.90;;;;;;4919446;29;20119;-83
2020/12/07 03:24:47;;;;;;;8.98;3.08;;;6.80;99.90;;;;;;4914592;29;20064;-83
2020/12/07 03:27:13;;;;;;;4.20;2.67;;;6.70;99.90;;;;;;4914907;29;20128;-83
2020/12/07 03:29:39;;;;;;;6.63;2.72;;;6.70;99.90;;;;;;4920009;29;20179;-83
2020/12/07 03:32:04;;;;;;;8.00;3.63;;;6.70;99.90;;;;;;4903981;29;20067;-82
2020/12/07 03:34:30;;;;;;;6.30;3.13;;;6.70;99.90;;;;;;4935982;29;20036;-83
2020/12/07 03:36:56;;;;;;;11.68;3.50;;;6.80;99.90;;;;;;4919388;29;20035;-82
2020/12/07 03:39:21;;;;;;;9.65;4.57;;;6.80;99.90;;;;;;4936433;29;20035;-86
2020/12/07 03:41:47;;;;;;;9.57;4.20;;;6.80;99.90;;;;;;4887925;29;20083;-84
2020/12/07 03:44:13;;;;;;;8.18;3.40;;;6.80;99.90;;;;;;4919153;29;20057;-84
2020/12/07 03:46:38;;;;;;;7.90;3.30;;;6.90;99.90;;;;;;4903215;29;20028;-83
2020/12/07 03:49:04;;;;;;;7.97;3.30;;;6.90;99.90;;;;;;4902545;29;20147;-82
2020/12/07 03:51:29;;;;;;;7.85;4.07;;;7.00;99.90;;;;;;4887889;29;20032;-83
2020/12/07 03:53:55;;;;;;;8.20;3.58;;;7.00;99.90;;;;;;4919167;29;20509;-83
2020/12/07 03:56:21;;;;;;;8.32;3.35;;;7.10;99.90;;;;;;4936196;29;20028;-84
2020/12/07 03:58:46;;;;;;;14.10;4.00;;;7.20;99.90;;;;;;4939490;29;20032;-83
2020/12/07 04:01:12;;;;;;;8.23;3.10;;;7.10;99.90;;;;;;4907447;29;20035;-83
2020/12/07 04:03:41;;;;;;;6.43;3.22;;;7.00;99.90;;;;;;4923251;29;20027;-83
2020/12/07 04:06:17;;;;;;;12.02;3.75;;;7.00;99.90;;;;;;4892642;29;20386;-84
2020/12/07 04:08:55;;;;;;;6.93;3.03;;;7.00;99.90;;;;;;4925455;29;20035;-83
2020/12/07 04:11:20;;;;;;;10.60;3.10;;;7.00;99.90;;;;;;4939718;29;20027;-85
2020/12/07 04:13:46;;;;;;;9.40;3.63;;;7.00;99.90;;;;;;4922803;29;20032;-83
2020/12/07 04:16:12;;;;;;;11.63;4.32;;;7.00;99.90;;;;;;4922462;29;20028;-83
2020/12/07 04:18:38;;;;;;;9.23;3.60;;;6.90;99.90;;;;;;4907090;29;20363;-83
2020/12/07 04:21:03;;;;;;;5.32;3.13;;;6.90;99.90;;;;;;4906447;29;20451;-83
2020/12/07 04:23:30;;;;;;;7.35;4.00;;;6.90;99.90;;;;;;4922182;29;20036;-83
2020/12/07 04:25:56;;;;;;;7.95;3.17;;;6.80;99.90;;;;;;4939121;29;20513;-83
2020/12/07 04:28:22;;;;;;;9.40;3.40;;;6.80;99.90;;;;;;4922488;29;20040;-83
2020/12/07 04:30:48;;;;;;;6.22;2.60;;;6.90;99.90;;;;;;4922384;29;20028;-83
2020/12/07 04:33:15;;;;;;;7.43;2.97;;;6.90;99.90;;;;;;4923108;29;20110;-83
2020/12/07 04:35:41;;;;;;;9.18;3.47;;;7.00;99.90;;;;;;4922447;29;20035;-84
2020/12/07 04:38:07;;;;;;;5.38;2.90;;;7.00;99.90;;;;;;4906909;29;20042;-82
2020/12/07 04:40:34;;;;;;;5.20;3.40;;;7.00;99.90;;;;;;4922322;29;20079;-83
2020/12/07 04:43:00;;;;;;;11.88;4.18;;;6.90;99.90;;;;;;4922153;29;20533;-82
2020/12/07 04:45:25;;;;;;;12.30;3.83;;;6.90;99.90;;;;;;4906677;29;20039;-84
2020/12/07 04:47:53;;;;;;;9.65;2.97;;;6.90;99.90;;;;;;4921976;29;20024;-84
2020/12/07 04:50:22;;;;;;;13.55;2.83;;;6.90;99.90;;;;;;4922334;29;20150;-83
2020/12/07 04:52:52;;;;;;;8.93;2.70;;;6.90;99.90;;;;;;4906717;29;20054;-84
2020/12/07 04:55:19;;;;;;;9.60;3.20;;;6.90;99.90;;;;;;4921963;29;20036;-82
2020/12/07 04:57:44;;;;;;;8.48;2.28;;;7.00;99.90;;;;;;4907063;29;20405;-82
2020/12/07 05:00:11;;;;;;;8.02;2.72;;;7.00;99.90;;;;;;4921484;29;20031;-82
2020/12/07 05:02:38;;;;;;;11.30;2.80;;;7.00;99.90;;;;;;4906212;29;20430;-83
2020/12/07 05:05:06;;;;;;;7.30;2.30;;;7.10;99.90;;;;;;4921590;29;20122;-83
2020/12/07 05:07:33;;;;;;;5.35;2.35;;;7.00;99.90;;;;;;4921690;29;20027;-83
2020/12/07 05:10:02;;;;;;;8.95;2.40;;;6.90;99.90;;;;;;4938179;29;20079;-83
2020/12/07 05:12:36;;;;;;;5.75;2.40;;;7.00;99.90;;;;;;4922381;29;20031;-84
2020/12/07 05:15:08;;;;;;;9.88;2.88;;;7.00;99.90;;;;;;4907135;29;20475;-84
2020/12/07 05:17:35;;;;;;;7.47;2.83;;;7.00;99.90;;;;;;4939576;29;20159;-84
2020/12/07 05:20:01;;;;;;;11.10;2.80;;;7.00;99.90;;;;;;4939204;29;20083;-84
2020/12/07 05:22:29;;;;;;;9.25;2.72;;;7.00;99.90;;;;;;4905686;29;20023;-82
2020/12/07 05:24:54;;;;;;;10.65;3.28;;;7.00;99.90;;;;;;4921316;29;20087;-82
2020/12/07 05:27:26;;;;;;;7.97;2.50;;;7.00;99.90;;;;;;4905912;29;20113;-82
2020/12/07 05:30:07;;;;;;;9.85;2.50;;;7.00;99.90;;;;;;4938649;29;20031;-84
2020/12/07 05:32:38;;;;;;;10.48;2.90;;;7.10;99.90;;;;;;4938509;29;20028;-82
2020/12/07 05:35:06;;;;;;;12.50;2.97;;;7.00;99.90;;;;;;4938191;29;20032;-83
2020/12/07 05:37:36;;;;;;;11.73;2.50;;;7.00;99.90;;;;;;4921123;29;20043;-83
2020/12/07 05:40:12;;;;;;;8.20;2.70;;;7.00;99.90;;;;;;4921168;29;20042;-82
2020/12/07 05:42:38;;;;;;;11.32;2.60;;;7.00;99.90;;;;;;4938111;29;20136;-84
2020/12/07 05:45:06;;;;;;;11.85;3.13;;;7.00;99.90;;;;;;4922070;29;20459;-82
2020/12/07 05:47:33;;;;;;;10.90;3.05;;;7.00;99.90;;;;;;4905412;29;20039;-83
2020/12/07 05:50:01;;;;;;;11.07;2.70;;;7.00;99.90;;;;;;4938263;29;20019;-84
2020/12/07 05:52:44;;;;;;;15.30;2.97;;;7.00;99.90;;;;;;4921101;29;20386;-83
2020/12/07 05:55:12;;;;;;;12.05;3.17;;;7.10;99.90;;;;;;4920635;29;20036;-82
2020/12/07 05:58:04;;;;;;;9.82;3.90;;;7.00;99.90;;;;;;4938084;29;20101;-82
2020/12/07 06:00:38;;;;;;;16.20;3.63;;;7.00;99.90;;;;;;4920803;29;20601;-82
2020/12/07 06:03:06;;;;;;;8.32;2.92;;;7.00;99.90;;;;;;4935682;29;20036;-81
2020/12/07 06:05:32;;;;;;;12.75;3.55;;;6.90;99.90;;;;;;4944325;29;20031;-83
2020/12/07 06:08:06;;;;;;;15.20;4.28;;;6.90;99.90;;;;;;4939106;29;20463;-83
2020/12/07 06:11:06;;;;;;;14.38;2.75;;;6.90;99.90;;;;;;4920877;29;20028;-83
2020/12/07 06:13:33;;;;;;;10.75;3.17;;;6.90;99.90;;;;;;4879886;29;20118;-83
2020/12/07 06:16:03;;;;;;;10.95;3.65;;;6.90;99.90;;;;;;4904966;29;20360;-83
2020/12/07 06:18:32;;;;;;;9.88;2.90;;;6.90;99.90;;;;;;4921025;29;20107;-83
2020/12/07 06:21:10;;;;;;;11.05;2.80;;;6.80;99.90;;;;;;4937827;29;20107;-84
2020/12/07 06:23:38;;;;;;;9.88;2.75;;;6.80;99.90;;;;;;4937572;29;20032;-84
2020/12/07 06:26:07;;;;;;;7.80;2.50;;;6.80;99.90;;;;;;4917029;29;20051;-84
2020/12/07 06:28:35;;;;;;;13.00;2.85;;;6.80;99.90;;;;;;4918380;29;20086;-83
2020/12/07 06:31:06;;;;;;;5.63;2.45;;;6.70;99.90;;;;;;4919525;29;20094;-83
2020/12/07 06:33:42;;;;;;;15.85;3.20;;;6.80;99.90;;;;;;4917358;29;20032;-84
2020/12/07 06:36:29;;;;;;;9.27;3.42;;;6.80;99.90;;;;;;4917756;29;20032;-83
2020/12/07 06:39:08;;;;;;;10.68;2.70;;;6.80;99.90;;;;;;4917512;29;20262;-83
2020/12/07 06:41:43;;;;;;;8.90;2.58;;;6.70;99.90;;;;;;4917552;29;20404;-82
2020/12/07 06:44:08;;;;;;;7.97;2.83;;;6.70;99.90;;;;;;4921588;29;20032;-83
2020/12/07 06:49:48;;;;;;;14.05;3.08;;;6.90;99.90;;;;;;4918822;29;20115;-83
2020/12/07 06:52:17;;;;;;;10.57;3.53;;;6.90;99.90;;;;;;4919224;29;20072;-83
2020/12/07 06:57:42;;;;;;;12.75;3.97;;;6.80;99.90;;;;;;4918153;29;20033;-83
2020/12/07 07:00:21;;;;;;;11.60;3.38;;;6.90;99.90;;;;;;4916532;29;20058;-83
2020/12/07 07:02:54;;;;;;;15.93;3.72;;;7.00;99.90;;;;;;4918939;29;20060;-83
2020/12/07 07:05:24;;;;;;;9.85;3.45;;;7.00;99.90;;;;;;4901457;29;20051;-83
2020/12/07 07:07:50;;;;;;;5.68;2.67;;;6.90;99.90;;;;;;4916317;29;20471;-84
2020/12/07 07:10:16;;;;;;;7.28;2.85;;;6.90;99.90;;;;;;4916493;29;20063;-84
2020/12/07 07:12:44;;;;;;;8.90;3.10;;;7.00;99.90;;;;;;4916204;29;20086;-84
2020/12/07 07:15:11;;;;;;;7.80;2.72;;;7.00;99.90;;;;;;4916572;29;20036;-83
2020/12/07 07:17:38;;;;;;;8.57;2.72;;;7.10;99.90;;;;;;4916194;29;20088;-83
2020/12/07 07:20:06;;;;;;;11.18;3.15;;;7.10;99.90;;;;;;4916112;29;20066;-84
2020/12/07 07:22:32;;;;;;;12.13;3.20;;;7.10;99.90;;;;;;4916047;29;20036;-83
2020/12/07 07:30:12;;;;;;;10.23;3.65;;;7.10;99.90;;;;;;4937025;29;20091;-85
2020/12/07 07:32:40;;;;;;;14.85;3.83;;;7.20;99.90;;;;;;4935613;29;20035;-85
2020/12/07 07:35:07;;;;;;;14.43;3.50;;;7.20;99.90;;;;;;4903545;29;20035;-83
2020/12/07 07:37:32;;;;;;;10.05;4.00;;;7.20;99.90;;;;;;4919389;29;20052;-85
2020/12/07 07:40:04;;;;;;;13.93;4.13;;;7.20;99.90;;;;;;4905026;29;20086;-84
2020/12/07 07:42:31;;;;;;;10.55;4.32;;;7.30;99.90;;;;;;4920158;29;20027;-84
2020/12/07 07:44:57;;;;;;;11.55;3.97;;;7.20;99.90;;;;;;4920304;29;20071;-84
2020/12/07 07:47:30;;;;;;;9.48;3.70;;;7.20;99.90;;;;;;4904007;29;20032;-84
2020/12/07 07:59:10;;;;;;;10.80;4.50;;;7.10;99.90;;;;;;4919885;29;20043;-84
2020/12/07 08:17:53;;;;;;;6.97;3.53;;;7.10;99.90;;;;;;4952753;29;20096;-84
2020/12/07 08:20:21;;;;;;;13.10;3.80;;;7.10;99.90;;;;;;4921945;29;20035;-83
2020/12/07 08:22:58;;;;;;;9.65;3.47;;;7.10;99.90;;;;;;4917184;29;20027;-82
2020/12/07 08:25:52;;;;;;;10.27;3.90;;;7.20;99.90;;;;;;4931564;29;20060;-82
2020/12/07 08:28:22;;;;;;;9.30;3.90;;;7.20;99.90;;;;;;4928738;29;20055;-82
2020/12/07 08:31:06;;;;;;;12.50;4.10;;;7.30;99.90;;;;;;4932577;29;20043;-80
2020/12/07 08:33:34;;;;;;;12.87;4.73;;;7.30;99.90;;;;;;4932766;29;20078;-81
2020/12/07 08:36:04;;;;;;;14.20;3.80;;;7.30;99.90;;;;;;4916925;29;20075;-81
2020/12/07 08:38:40;;;;;;;10.60;4.00;;;7.10;99.90;;;;;;4934176;29;20028;-81
2020/12/07 08:41:14;;;;;;;16.00;4.85;;;7.10;99.90;;;;;;4916475;29;20035;-81
2020/12/07 08:43:43;;;;;;;10.18;3.08;;;7.00;99.90;;;;;;4938017;29;20052;-83
2020/12/07 08:46:10;;;;;;;7.65;2.20;;;6.80;99.90;;;;;;4942340;29;20032;-83
2020/12/07 08:48:37;;;;;;;7.30;2.53;;;6.80;99.90;;;;;;4944693;29;20030;-82
2020/12/07 08:51:02;;;;;;;6.25;2.38;;;6.60;99.90;;;;;;4953238;29;20024;-80
2020/12/07 08:53:28;;;;;;;5.13;2.03;;;6.70;99.90;;;;;;4913339;29;20078;-82
2020/12/07 08:55:54;;;;;;;7.38;2.20;;;6.70;99.90;;;;;;4915713;29;20032;-94
2020/12/07 08:58:19;;;;;;;5.65;1.83;;;6.80;99.90;;;;;;4953122;29;20051;-80
2020/12/07 09:00:45;;;;;;;8.60;2.22;;;6.70;99.90;;;;;;4940374;29;20035;-79
2020/12/07 09:03:11;;;;;;;7.35;3.30;;;6.70;99.90;;;;;;4940939;29;20031;-80
2020/12/07 09:05:38;;;;;;;6.88;2.42;;;6.70;99.90;;;;;;4932988;29;20032;-82
2020/12/07 09:08:04;;;;;;;3.45;1.98;;;6.70;99.90;;;;;;4909870;29;20417;-82
2020/12/07 09:10:30;;;;;;;11.23;2.40;;;6.70;99.90;;;;;;4924041;29;20055;-81
2020/12/07 09:12:56;;;;;;;53.25;6.15;;;6.70;99.90;;;;;;4927761;29;20486;-86
2020/12/07 09:15:21;;;;;;;7.55;2.20;;;6.70;99.90;;;;;;4916211;29;20371;-81
2020/12/07 09:17:48;;;;;;;5.35;2.22;;;6.80;99.90;;;;;;4909654;29;20063;-83
2020/12/07 09:20:14;;;;;;;10.18;2.88;;;6.80;99.90;;;;;;4923974;29;20091;-81
2020/12/07 09:22:40;;;;;;;10.30;2.60;;;6.90;99.90;;;;;;4922778;29;20427;-83
2020/12/07 09:25:06;;;;;;;6.25;2.38;;;6.90;99.90;;;;;;4940058;29;20059;-82
2020/12/07 09:27:33;;;;;;;6.05;2.35;;;6.90;99.90;;;;;;4908485;29;20032;-81
2020/12/07 09:29:59;;;;;;;6.63;2.97;;;7.00;99.90;;;;;;4922177;29;20055;-84
2020/12/07 09:32:24;;;;;;;11.07;3.85;;;7.10;99.90;;;;;;4890349;29;20419;-83
2020/12/07 09:34:50;;;;;;;5.72;3.30;;;7.00;99.90;;;;;;4938518;29;20067;-83
2020/12/07 09:37:16;;;;;;;11.98;2.95;;;7.10;99.90;;;;;;4905542;29;20052;-84
2020/12/07 09:39:42;;;;;;;7.80;2.95;;;7.10;99.90;;;;;;4922559;29;20063;-84
2020/12/07 09:42:07;;;;;;;7.68;3.13;;;7.10;99.90;;;;;;4921441;29;20028;-82
2020/12/07 09:44:33;;;;;;;11.65;3.53;;;7.10;99.90;;;;;;4891129;29;20092;-82
2020/12/07 09:47:00;;;;;;;7.18;3.33;;;7.10;99.90;;;;;;4905573;29;20035;-82
2020/12/07 09:49:26;;;;;;;8.48;2.78;;;7.10;99.90;;;;;;4920436;29;20114;-80
2020/12/07 09:51:53;;;;;;;11.60;3.50;;;7.20;99.90;;;;;;4938070;29;20036;-82
2020/12/07 09:54:19;;;;;;;14.23;4.03;;;7.20;99.90;;;;;;4891372;29;20055;-83
2020/12/07 09:56:44;;;;;;;6.18;3.45;;;7.20;99.90;;;;;;4906384;29;20474;-82
2020/12/07 09:59:10;;;;;;;4.40;3.10;;;7.20;99.90;;;;;;4920990;29;20385;-83
2020/12/07 10:01:36;;;;;;;12.68;3.55;;;7.20;99.90;;;;;;4921053;29;20458;-85
2020/12/07 10:04:02;;;;;;;14.95;4.32;;;7.10;99.90;;;;;;4905106;29;20032;-81
2020/12/07 10:06:30;;;;;;;9.27;3.78;;;7.20;99.90;;;;;;4905091;29;20462;-82
2020/12/07 10:08:56;;;;;;;10.02;3.88;;;7.30;99.90;;;;;;4920610;29;20064;-83
2020/12/07 10:11:22;;;;;;;14.30;4.45;;;7.40;99.90;;;;;;4921391;29;20036;-82
2020/12/07 10:13:48;;;;;;;10.95;3.92;;;7.30;99.90;;;;;;4939461;29;20078;-83
2020/12/07 10:16:14;;;;;;;11.55;4.32;;;7.40;99.90;;;;;;4920473;29;20050;-82
2020/12/07 10:18:40;;;;;;;9.88;4.18;;;7.50;99.90;;;;;;4938553;29;20486;-82
2020/12/07 10:21:06;;;;;;;13.02;5.38;;;7.40;99.90;;;;;;4939565;29;20066;-84
2020/12/07 10:23:41;;;;;;;10.13;4.03;;;7.50;99.90;;;;;;4909720;29;20031;-83
2020/12/07 10:26:07;;;;;;;9.65;3.92;;;7.50;99.90;;;;;;4923969;29;20056;-83
2020/12/07 10:28:32;;;;;;;12.20;4.85;;;7.40;99.90;;;;;;4901646;29;20033;-84
2020/12/07 10:30:58;;;;;;;9.13;3.67;;;7.50;99.90;;;;;;4918543;29;20043;-83
2020/12/07 10:33:24;;;;;;;7.78;3.72;;;7.40;99.90;;;;;;4919155;29;20028;-83
2020/12/07 10:35:49;;;;;;;7.07;2.85;;;7.30;99.90;;;;;;4885877;29;20554;-83
2020/12/07 10:38:15;;;;;;;10.80;3.08;;;7.30;99.90;;;;;;4901623;29;20036;-83
2020/12/07 10:40:40;;;;;;;7.15;3.17;;;7.20;99.90;;;;;;4902037;29;20052;-83
2020/12/07 10:43:06;;;;;;;8.32;2.92;;;7.20;99.90;;;;;;4904049;29;20080;-84
2020/12/07 10:45:32;;;;;;;4.93;2.88;;;7.20;99.90;;;;;;4903656;29;20103;-83
2020/12/07 10:47:57;;;;;;;9.95;3.10;;;7.20;99.90;;;;;;4885454;29;20036;-83
2020/12/07 10:50:23;;;;;;;7.20;3.30;;;7.30;99.90;;;;;;4916657;29;20036;-84
2020/12/07 10:52:49;;;;;;;8.35;3.10;;;7.20;99.90;;;;;;4901099;29;20035;-84
2020/12/07 10:55:15;;;;;;;7.00;2.95;;;7.20;99.90;;;;;;4916653;29;20491;-84
2020/12/07 10:57:41;;;;;;;9.57;4.47;;;7.20;99.90;;;;;;4917743;29;20036;-83
2020/12/07 11:00:07;;;;;;;7.47;3.75;;;7.30;99.90;;;;;;4923263;29;20119;-83
2020/12/07 11:02:33;;;;;;;11.60;3.40;;;7.30;99.90;;;;;;4918595;29;20035;-84
2020/12/07 11:04:59;;;;;;;7.55;4.00;;;7.30;99.90;;;;;;4917340;29;20028;-84
2020/12/07 11:07:26;;;;;;;10.05;4.53;;;7.20;99.90;;;;;;4901605;29;20028;-84
2020/12/07 11:09:51;;;;;;;12.20;4.72;;;7.40;99.90;;;;;;4917772;29;20102;-84
2020/12/07 11:12:20;;;;;;;11.52;5.40;;;7.40;99.90;;;;;;4919153;29;20029;-86
2020/12/07 11:14:46;;;;;;;20.77;5.80;;;7.40;99.90;;;;;;4887051;29;20036;-84
2020/12/07 11:17:12;;;;;;;10.63;5.35;;;7.40;99.90;;;;;;4911936;29;20040;-82
2020/12/07 11:19:37;;;;;;;9.57;6.03;;;7.60;99.90;;;;;;4926848;29;20043;-84
2020/12/07 11:22:04;;;;;;;13.75;7.07;;;7.60;99.90;;;;;;4891117;29;20112;-89
2020/12/07 11:24:31;;;;;;;15.80;8.02;;;7.60;99.90;;;;;;4921752;29;20081;-85
2020/12/07 11:26:57;;;;;;;14.70;7.80;;;7.40;99.90;;;;;;4889250;29;20094;-85
2020/12/07 11:29:22;;;;;;;17.17;8.65;;;7.40;99.90;;;;;;4903849;29;20032;-84
2020/12/07 11:31:49;;;;;;;13.85;7.40;;;7.30;99.90;;;;;;4919721;29;20068;-86
2020/12/07 11:34:21;;;;;;;16.85;6.90;;;7.40;99.90;;;;;;4919456;29;20027;-85
2020/12/07 11:36:49;;;;;;;14.05;7.57;;;7.40;99.90;;;;;;4936597;29;20028;-84
2020/12/07 11:44:21;;;;;;;14.40;8.02;;;7.20;99.90;;;;;;4919939;29;20040;-85
2020/12/07 11:49:12;;;;;;;13.30;6.70;;;7.50;99.90;;;;;;4919313;29;20435;-85
2020/12/07 11:51:38;;;;;;;13.68;6.55;;;7.50;99.90;;;;;;4903106;29;20075;-85
2020/12/07 11:54:04;;;;;;;18.13;7.22;;;7.40;99.90;;;;;;4903161;29;20091;-83
2020/12/07 11:56:32;;;;;;;14.52;7.00;;;7.40;99.90;;;;;;4936515;29;20040;-86
2020/12/07 11:58:58;;;;;;;15.52;7.38;;;7.40;99.90;;;;;;4903895;29;20455;-86
2020/12/07 12:01:24;;;;;;;13.77;7.85;;;7.40;99.90;;;;;;4903085;29;20035;-85
2020/12/07 12:03:50;;;;;;;22.80;10.20;;;7.40;99.90;;;;;;4918693;29;20390;-86
2020/12/07 12:06:38;;;;;;;13.68;9.77;;;7.40;99.90;;;;;;4904536;29;20063;-85
2020/12/07 12:09:06;;;;;;;17.77;11.30;;;7.30;99.90;;;;;;4904882;29;20031;-85
2020/12/07 12:11:33;;;;;;;21.92;12.25;;;7.30;99.90;;;;;;4920494;29;20031;-85
2020/12/07 12:14:00;;;;;;;22.00;11.75;;;7.40;99.90;;;;;;4935725;29;20386;-87
2020/12/07 12:16:27;;;;;;;18.92;12.63;;;7.50;99.90;;;;;;4903389;29;20051;-85
2020/12/07 12:18:56;;;;;;;23.77;13.95;;;7.50;99.90;;;;;;4937639;29;20132;-84
2020/12/07 12:21:24;;;;;;;21.10;14.40;;;7.50;99.90;;;;;;4922694;29;20070;-85
2020/12/07 12:23:50;;;;;;;20.02;13.35;;;7.40;99.90;;;;;;4939405;29;20016;-84
2020/12/07 12:26:16;;;;;;;20.15;13.80;;;7.20;99.90;;;;;;4940588;29;20058;-84
2020/12/07 12:28:42;;;;;;;21.65;14.98;;;7.20;99.90;;;;;;4907211;29;20036;-84
2020/12/07 12:31:09;;;;;;;23.67;15.05;;;7.20;99.90;;;;;;4922385;29;20027;-83
2020/12/07 12:33:35;;;;;;;26.90;15.38;;;7.20;99.90;;;;;;4923715;29;20027;-84
2020/12/07 12:36:01;;;;;;;21.88;15.82;;;7.30;99.90;;;;;;4924584;29;20046;-84
2020/12/07 12:38:26;;;;;;;24.15;16.20;;;7.20;99.90;;;;;;4922275;29;20389;-84
2020/12/07 12:40:52;;;;;;;26.58;15.52;;;7.20;99.90;;;;;;4922185;29;20090;-83
2020/12/07 12:43:18;;;;;;;21.38;13.35;;;7.20;99.90;;;;;;4905936;29;20087;-84
2020/12/07 12:45:43;;;;;;;28.33;18.08;;;7.20;99.90;;;;;;4906382;29;20412;-83
2020/12/07 12:48:09;;;;;;;22.48;15.63;;;7.20;99.90;;;;;;4921854;29;20058;-84
2020/12/07 12:50:35;;;;;;;32.28;18.20;;;7.30;99.90;;;;;;4922241;29;20044;-85
2020/12/07 12:53:01;;;;;;;24.35;16.48;;;7.20;99.90;;;;;;4906392;29;20031;-83
2020/12/07 12:55:26;;;;;;;26.55;17.08;;;7.30;99.90;;;;;;4921406;29;20031;-83
2020/12/07 12:57:52;;;;;;;28.00;17.35;;;7.30;99.90;;;;;;4890454;29;20039;-82
2020/12/07 13:00:18;;;;;;;24.80;16.27;;;7.30;99.90;;;;;;4922413;29;20024;-84
2020/12/07 13:02:44;;;;;;;19.20;12.02;;;7.20;99.90;;;;;;4906111;29;20039;-83
2020/12/07 13:05:09;;;;;;;15.88;7.82;;;7.10;99.90;;;;;;4922193;29;20040;-83
2020/12/07 13:07:35;;;;;;;15.75;8.55;;;7.10;99.90;;;;;;4905656;29;20028;-83
2020/12/07 13:10:01;;;;;;;14.98;9.77;;;7.10;99.90;;;;;;4921639;29;20459;-85
2020/12/07 13:12:26;;;;;;;16.02;10.23;;;7.10;99.90;;;;;;4905759;29;20024;-82
2020/12/07 13:14:52;;;;;;;18.35;9.80;;;7.10;99.90;;;;;;4905264;29;20042;-82
2020/12/07 13:17:21;;;;;;;18.48;10.27;;;7.20;99.90;;;;;;4905954;29;20027;-82
2020/12/07 13:19:47;;;;;;;24.13;11.82;;;7.20;99.90;;;;;;4892660;29;20031;-83
2020/12/07 13:24:48;;;;;;;13.80;4.95;;;7.20;99.90;;;;;;4907157;29;20055;-82
2020/12/07 13:28:01;;;;;;;6.95;3.13;;;7.10;99.90;;;;;;4939013;29;20023;-83
2020/12/07 13:30:05;;;;;;;13.35;6.75;;;7.00;99.90;;;;;;4927779;29;20036;-83
2020/12/07 13:32:30;;;;;;;13.63;6.40;;;6.90;99.90;;;;;;4921372;29;20024;-82
2020/12/07 13:34:56;;;;;;;12.05;6.07;;;6.90;99.90;;;;;;4906070;29;20178;-81
2020/12/07 13:37:25;;;;;;;16.98;7.93;;;7.00;99.90;;;;;;4905657;29;20027;-82